createdAt,value
2019-04-26T00:01:56.251Z,50.28
2019-04-26T00:04:25.303Z,51.19
2019-04-26T00:06:54.921Z,50.39
2019-04-26T00:09:32.702Z,50.54
2019-04-26T00:12:19.549Z,50.90
2019-04-26T00:15:06.812Z,50.55
2019-04-26T00:17:41.424Z,50.73
2019-04-26T00:20:11.924Z,50.86
2019-04-26T00:22:47.636Z,50.99
2019-04-26T00:25:18.656Z,51.52
2019-04-26T00:27:48.301Z,51.30
2019-04-26T00:30:17.633Z,51.02
2019-04-26T00:32:46.627Z,51.56
2019-04-26T00:35:15.979Z,51.12
2019-04-26T00:37:45.346Z,51.83
2019-04-26T00:40:14.870Z,51.34
2019-04-26T00:42:46.157Z,51.30
2019-04-26T00:45:16.742Z,51.38
2019-04-26T00:47:47.426Z,51.53
2019-04-26T00:50:19.115Z,51.86
2019-04-26T00:52:50.507Z,51.70
2019-04-26T00:55:22.010Z,51.57
2019-04-26T00:57:57.945Z,51.71
2019-04-26T01:00:29.347Z,51.37
2019-04-26T01:02:59.249Z,51.23
2019-04-26T01:05:30.259Z,51.38
2019-04-26T01:07:59.686Z,51.62
2019-04-26T01:10:29.090Z,51.68
2019-04-26T01:12:58.266Z,51.86
2019-04-26T01:15:28.429Z,51.84
2019-04-26T01:17:57.987Z,51.65
2019-04-26T01:20:30.318Z,51.48
2019-04-26T01:23:03.126Z,51.48
2019-04-26T01:25:40.095Z,51.71
2019-04-26T01:28:13.269Z,51.90
2019-04-26T01:30:45.278Z,52.08
2019-04-26T01:33:15.170Z,52.39
2019-04-26T01:35:44.590Z,52.68
2019-04-26T01:38:16.215Z,52.90
2019-04-26T01:40:50.038Z,52.98
2019-04-26T01:43:41.181Z,53.19
2019-04-26T01:46:16.420Z,52.89
2019-04-26T01:49:00.419Z,52.97
2019-04-26T01:51:44.677Z,53.28
2019-04-26T01:54:17.137Z,53.60
2019-04-26T01:56:49.282Z,53.92
2019-04-26T01:59:19.319Z,54.12
2019-04-26T02:02:07.725Z,54.01
2019-04-26T02:04:39.411Z,54.17
2019-04-26T02:07:08.974Z,53.86
2019-04-26T02:09:38.707Z,53.85
2019-04-26T02:12:08.351Z,54.06
2019-04-26T02:14:37.444Z,54.29
2019-04-26T02:17:06.614Z,54.51
2019-04-26T02:19:35.830Z,54.79
2019-04-26T02:22:21.363Z,54.91
2019-04-26T02:24:51.515Z,55.03
2019-04-26T02:27:24.830Z,54.70
2019-04-26T02:29:54.013Z,54.82
2019-04-26T02:32:23.325Z,55.08
2019-04-26T02:34:53.471Z,55.53
2019-04-26T02:37:22.702Z,56.02
2019-04-26T02:39:54.509Z,56.18
2019-04-26T02:42:35.000Z,56.66
2019-04-26T02:45:57.689Z,56.72
2019-04-26T02:48:50.245Z,56.92
2019-04-26T02:51:24.126Z,57.04
2019-04-26T02:54:05.618Z,56.96
2019-04-26T02:56:40.859Z,57.03
2019-04-26T02:59:36.195Z,57.22
2019-04-26T03:02:07.769Z,57.15
2019-04-26T03:04:39.817Z,57.46
2019-04-26T03:07:32.089Z,57.70
2019-04-26T03:10:03.560Z,57.56
2019-04-26T03:12:37.493Z,57.70
2019-04-26T03:15:18.354Z,57.77
2019-04-26T03:17:56.887Z,57.97
2019-04-26T03:20:36.294Z,58.00
2019-04-26T03:23:22.501Z,58.12
2019-04-26T03:26:23.431Z,57.63
2019-04-26T03:29:26.458Z,57.96
2019-04-26T03:32:17.391Z,58.06
2019-04-26T03:34:56.086Z,58.20
2019-04-26T03:37:58.836Z,58.27
2019-04-26T03:40:44.607Z,58.20
2019-04-26T03:43:51.591Z,57.59
2019-04-26T03:46:34.861Z,57.36
2019-04-26T03:49:44.214Z,56.83
2019-04-26T03:52:57.339Z,56.44
2019-04-26T03:56:03.964Z,56.45
2019-04-26T03:59:00.757Z,55.07
2019-04-26T04:01:35.421Z,54.64
2019-04-26T04:04:24.767Z,54.58
2019-04-26T04:07:04.273Z,54.51
2019-04-26T04:09:28.628Z,54.71
2019-04-26T04:12:11.860Z,54.92
2019-04-26T04:14:55.105Z,55.16
2019-04-26T04:17:39.660Z,55.01
2019-04-26T04:20:26.393Z,55.22
2019-04-26T04:23:12.663Z,55.73
2019-04-26T04:25:47.273Z,55.88
2019-04-26T04:28:30.743Z,55.89
2019-04-26T04:31:29.349Z,56.03
2019-04-26T04:34:21.783Z,56.38
2019-04-26T04:36:53.954Z,56.81
2019-04-26T04:39:38.807Z,57.21
2019-04-26T04:42:38.029Z,57.35
2019-04-26T04:45:59.257Z,57.98
2019-04-26T04:48:53.900Z,58.32
2019-04-26T04:51:36.798Z,59.15
2019-04-26T04:54:25.055Z,58.97
2019-04-26T04:57:19.170Z,58.76
2019-04-26T05:00:14.987Z,58.73
2019-04-26T05:02:56.787Z,58.65
2019-04-26T05:06:14.233Z,58.75
2019-04-26T05:08:58.623Z,58.93
2019-04-26T05:11:37.870Z,59.04
2019-04-26T05:14:29.695Z,58.92
2019-04-26T05:17:53.656Z,58.81
2019-04-26T05:20:32.934Z,58.75
2019-04-26T05:23:55.233Z,58.78
2019-04-26T05:27:08.677Z,58.74
2019-04-26T05:30:36.330Z,59.20
2019-04-26T05:33:15.900Z,59.08
2019-04-26T05:36:41.542Z,59.49
2019-04-26T05:39:21.799Z,59.34
2019-04-26T05:42:30.261Z,59.68
2019-04-26T05:45:36.955Z,60.04
2019-04-26T05:48:36.447Z,59.90
2019-04-26T05:51:37.852Z,60.38
2019-04-26T05:54:58.279Z,60.78
2019-04-26T05:58:00.006Z,61.25
2019-04-26T06:01:00.685Z,62.00
2019-04-26T06:04:16.518Z,61.99
2019-04-26T06:07:01.357Z,61.84
2019-04-26T06:10:20.978Z,62.14
2019-04-26T06:13:28.584Z,62.61
2019-04-26T06:16:10.615Z,62.70
2019-04-26T06:19:02.811Z,62.54
2019-04-26T06:21:53.787Z,62.65
2019-04-26T06:24:58.747Z,62.84
2019-04-26T06:27:58.405Z,63.04
2019-04-26T06:30:51.502Z,63.11
2019-04-26T06:33:43.874Z,62.87
2019-04-26T06:36:21.602Z,61.79
2019-04-26T06:39:30.409Z,61.20
2019-04-26T06:42:31.199Z,60.96
2019-04-26T06:46:38.379Z,61.38
2019-04-26T06:49:35.351Z,61.48
2019-04-26T10:50:50.808Z,60.76
2019-04-26T10:53:43.917Z,60.76
2019-04-26T10:56:29.327Z,55.36
2019-04-26T10:59:12.879Z,55.61
2019-04-26T11:01:42.249Z,55.83
2019-04-26T11:04:11.526Z,55.96
2019-04-26T11:06:44.097Z,56.46
2019-04-26T11:09:14.887Z,56.36
2019-04-26T11:11:44.739Z,56.36
2019-04-26T11:14:14.044Z,56.26
2019-04-26T11:16:43.473Z,55.82
2019-04-26T11:19:12.493Z,55.82
2019-04-26T11:21:41.896Z,56.18
2019-04-26T11:24:11.002Z,56.21
2019-04-26T11:26:40.754Z,56.18
2019-04-26T11:29:10.770Z,56.18
2019-04-26T11:31:40.373Z,56.67
2019-04-26T11:34:10.918Z,57.12
2019-04-26T11:36:41.706Z,57.12
2019-04-26T11:39:14.307Z,57.11
2019-04-26T11:41:43.580Z,57.11
2019-04-26T11:44:13.566Z,57.30
2019-04-26T11:46:45.122Z,57.30
2019-04-26T11:49:13.960Z,57.48
2019-04-26T11:51:43.180Z,57.35
2019-04-26T11:54:16.926Z,57.20
2019-04-26T11:56:44.787Z,57.20
2019-04-26T11:59:14.181Z,57.27
2019-04-26T12:01:44.199Z,57.27
2019-04-26T12:04:35.968Z,57.34
2019-04-26T12:07:15.186Z,57.31
2019-04-26T12:09:46.711Z,57.31
2019-04-26T12:12:16.058Z,57.52
2019-04-26T12:14:45.355Z,57.76
2019-04-26T12:17:14.606Z,57.92
2019-04-26T12:19:44.120Z,57.76
2019-04-26T12:22:13.702Z,57.58
2019-04-26T12:24:43.219Z,57.68
2019-04-26T12:27:12.298Z,57.73
2019-04-26T12:29:44.245Z,57.49
2019-04-26T12:32:13.159Z,57.51
2019-04-26T12:34:45.165Z,57.56
2019-04-26T12:37:19.916Z,57.51
2019-04-26T12:39:48.314Z,57.59
2019-04-26T12:42:24.295Z,57.72
2019-04-26T12:45:27.281Z,57.70
2019-04-26T12:47:58.616Z,57.75
2019-04-26T12:50:29.465Z,57.49
2019-04-26T12:52:59.464Z,57.52
2019-04-26T12:55:29.510Z,57.19
2019-04-26T12:57:58.534Z,56.77
2019-04-26T13:00:33.056Z,56.57
2019-04-26T13:03:03.323Z,56.22
2019-04-26T13:05:35.075Z,55.92
2019-04-26T13:08:04.451Z,55.97
2019-04-26T13:10:52.458Z,56.28
2019-04-26T13:13:40.536Z,56.68
2019-04-26T13:16:21.821Z,56.88
2019-04-26T13:18:51.650Z,57.01
2019-04-26T13:21:21.301Z,57.21
2019-04-26T13:23:50.700Z,57.23
2019-04-26T13:26:20.120Z,57.23
2019-04-26T13:28:52.409Z,57.08
2019-04-26T13:31:20.937Z,56.78
2019-04-26T13:33:50.219Z,56.51
2019-04-26T13:36:19.513Z,56.27
2019-04-26T13:38:48.611Z,56.20
2019-04-26T13:41:18.237Z,56.06
2019-04-26T13:43:47.860Z,55.69
2019-04-26T13:46:40.749Z,55.42
2019-04-26T13:49:21.581Z,55.23
2019-04-26T13:51:51.304Z,55.33
2019-04-26T13:54:22.700Z,55.82
2019-04-26T13:56:51.919Z,56.23
2019-04-26T13:59:21.409Z,56.32
2019-04-26T14:01:50.978Z,56.18
2019-04-26T14:04:20.007Z,55.90
2019-04-26T14:06:49.358Z,55.99
2019-04-26T14:09:18.558Z,55.85
2019-04-26T14:11:48.194Z,56.01
2019-04-26T14:14:17.513Z,55.64
2019-04-26T14:16:46.658Z,56.25
2019-04-26T14:19:16.897Z,56.38
2019-04-26T14:21:46.734Z,56.85
2019-04-26T14:24:33.482Z,56.96
2019-04-26T14:27:10.475Z,57.06
2019-04-26T14:29:38.517Z,57.42
2019-04-26T14:32:08.083Z,57.94
2019-04-26T14:34:40.453Z,58.40
2019-04-26T14:37:11.146Z,58.58
2019-04-26T14:39:49.975Z,58.63
2019-04-26T14:42:10.192Z,58.58
2019-04-26T14:44:49.160Z,58.82
2019-04-26T14:47:14.754Z,58.84
2019-04-26T14:49:43.117Z,58.54
2019-04-26T14:52:12.687Z,58.61
2019-04-26T14:54:46.107Z,58.57
2019-04-26T14:57:21.385Z,58.82
2019-04-26T14:59:47.661Z,59.15
2019-04-26T15:02:56.224Z,59.37
2019-04-26T15:05:43.126Z,59.26
2019-04-26T15:08:11.709Z,59.17
2019-04-26T15:10:46.754Z,59.27
2019-04-26T15:13:19.889Z,59.25
2019-04-26T15:15:46.115Z,59.34
2019-04-26T15:18:15.748Z,59.41
2019-04-26T15:20:45.271Z,59.52
2019-04-26T15:23:14.546Z,59.61
2019-04-26T15:25:48.316Z,59.63
2019-04-26T15:28:14.772Z,59.63
2019-04-26T15:30:46.796Z,59.52
2019-04-26T15:33:15.917Z,59.67
2019-04-26T15:35:46.102Z,59.65
2019-04-26T15:38:15.445Z,59.54
2019-04-26T15:41:11.566Z,59.57
2019-04-26T15:43:53.419Z,59.30
2019-04-26T15:46:42.626Z,59.48
2019-04-26T15:49:34.736Z,59.61
2019-04-26T15:52:02.554Z,59.41
2019-04-26T15:54:35.764Z,59.02
2019-04-26T15:57:06.774Z,58.83
2019-04-26T15:59:36.383Z,58.63
2019-04-26T16:02:06.029Z,58.51
2019-04-26T16:04:35.338Z,58.51
2019-04-26T16:07:05.577Z,58.73
2019-04-26T16:09:35.024Z,58.66
2019-04-26T16:12:04.503Z,58.49
2019-04-26T16:14:36.747Z,58.57
2019-04-26T16:17:06.615Z,58.44
2019-04-26T16:19:38.927Z,58.65
2019-04-26T16:22:08.422Z,58.57
2019-04-26T16:24:38.507Z,58.70
2019-04-26T16:27:08.154Z,58.46
2019-04-26T16:29:58.370Z,58.50
2019-04-26T16:32:43.237Z,58.49
2019-04-26T16:35:12.924Z,58.43
2019-04-26T16:37:43.694Z,58.41
2019-04-26T16:40:14.046Z,58.30
2019-04-26T16:42:43.638Z,58.36
2019-04-26T16:45:12.940Z,58.34
2019-04-26T16:47:47.368Z,58.46
2019-04-26T16:50:15.010Z,58.44
2019-04-26T16:52:47.748Z,58.55
2019-04-26T16:55:20.855Z,58.45
2019-04-26T16:57:53.784Z,58.42
2019-04-26T17:00:17.428Z,58.43
2019-04-26T17:02:46.642Z,58.39
2019-04-26T17:05:20.885Z,58.35
2019-04-26T17:07:46.662Z,58.27
2019-04-26T17:10:16.635Z,58.03
2019-04-26T17:12:50.770Z,58.10
2019-04-26T17:15:21.141Z,58.23
2019-04-26T17:17:50.525Z,58.21
2019-04-26T17:20:19.190Z,58.32
2019-04-26T17:23:06.293Z,58.43
2019-04-26T17:25:55.146Z,58.61
2019-04-26T17:28:26.231Z,58.59
2019-04-26T17:30:53.636Z,58.82
2019-04-26T17:33:28.072Z,58.87
2019-04-26T17:35:54.402Z,58.96
2019-04-26T17:38:23.965Z,59.38
2019-04-26T17:40:53.378Z,59.38
2019-04-26T17:43:22.447Z,59.47
2019-04-26T17:45:52.076Z,59.78
2019-04-26T17:48:21.251Z,59.70
2019-04-26T17:50:50.723Z,60.10
2019-04-26T17:53:28.631Z,60.62
2019-04-26T17:55:54.814Z,61.24
2019-04-26T17:58:27.446Z,62.11
2019-04-26T18:00:56.559Z,62.68
2019-04-26T18:03:24.585Z,62.97
2019-04-26T18:05:57.069Z,63.39
2019-04-26T18:08:41.120Z,63.98
2019-04-26T18:11:05.393Z,65.41
2019-04-26T18:13:34.925Z,64.75
2019-04-26T18:16:04.325Z,65.14
2019-04-26T18:18:54.373Z,65.36
2019-04-26T18:21:40.600Z,65.67
2019-04-26T18:24:10.316Z,66.09
2019-04-26T18:26:39.935Z,66.47
2019-04-26T18:29:09.270Z,66.36
2019-04-26T18:31:38.645Z,68.22
2019-04-26T18:34:08.063Z,66.81
2019-04-26T18:36:37.647Z,66.81
2019-04-26T18:39:11.714Z,66.90
2019-04-26T18:41:41.130Z,67.04
2019-04-26T18:44:14.439Z,67.31
2019-04-26T18:46:49.676Z,67.08
2019-04-26T18:49:26.988Z,68.12
2019-04-26T18:51:54.648Z,68.46
2019-04-26T18:54:29.661Z,68.24
2019-04-26T18:57:03.194Z,68.65
2019-04-26T18:59:34.190Z,68.70
2019-04-26T19:02:04.035Z,69.08
2019-04-26T19:04:33.935Z,69.12
2019-04-26T19:07:12.047Z,68.81
2019-04-26T19:09:56.761Z,70.32
2019-04-26T19:12:41.240Z,69.69
2019-04-26T19:15:11.970Z,70.44
2019-04-26T19:17:48.411Z,69.89
2019-04-26T19:20:43.147Z,70.04
2019-04-26T19:23:12.784Z,70.71
2019-04-26T19:25:46.242Z,70.59
2019-04-26T19:28:15.362Z,70.50
2019-04-26T19:30:50.977Z,70.68
2019-04-26T19:33:23.116Z,70.80
2019-04-26T19:35:54.718Z,70.96
2019-04-26T19:38:33.136Z,72.05
2019-04-26T19:41:03.017Z,72.75
2019-04-26T19:43:35.054Z,71.70
2019-04-26T19:46:16.944Z,71.99
2019-04-26T19:49:03.444Z,72.18
2019-04-26T19:51:44.287Z,71.77
2019-04-26T19:54:38.498Z,71.99
2019-04-26T19:57:21.745Z,72.38
2019-04-26T19:59:58.296Z,72.30
2019-04-26T20:02:35.882Z,72.15
2019-04-26T20:05:02.396Z,72.37
2019-04-26T20:07:33.383Z,72.22
2019-04-26T20:10:05.096Z,72.59
2019-04-26T20:12:37.840Z,72.67
2019-04-26T20:15:05.300Z,72.88
2019-04-26T20:17:34.777Z,72.79
2019-04-26T20:20:16.592Z,74.90
2019-04-26T20:22:35.014Z,73.54
2019-04-26T20:25:04.741Z,73.82
2019-04-26T20:27:34.180Z,73.48
2019-04-26T20:30:05.391Z,73.58
2019-04-26T20:32:37.251Z,73.94
2019-04-26T20:35:13.211Z,73.87
2019-04-26T20:37:45.159Z,73.87
2019-04-26T20:40:22.170Z,74.28
2019-04-26T20:42:46.817Z,74.74
2019-04-26T20:45:16.999Z,74.22
2019-04-26T20:47:46.812Z,74.17
2019-04-26T20:50:17.574Z,74.48
2019-04-26T20:52:46.763Z,74.66
2019-04-26T20:55:16.017Z,74.67
2019-04-26T20:57:45.214Z,74.62
2019-04-26T21:00:15.376Z,74.84
2019-04-26T21:02:44.647Z,75.52
2019-04-26T21:05:14.787Z,75.08
2019-04-26T21:07:49.220Z,75.15
2019-04-26T21:10:21.690Z,75.39
2019-04-26T21:12:52.284Z,75.43
2019-04-26T21:15:20.379Z,75.40
2019-04-26T21:17:49.702Z,75.57
2019-04-26T21:20:27.698Z,75.51
2019-04-26T21:23:01.742Z,75.87
2019-04-26T21:25:41.971Z,75.88
2019-04-26T21:28:17.452Z,76.02
2019-04-26T21:30:55.475Z,75.99
2019-04-26T21:33:28.667Z,76.13
2019-04-26T21:36:36.212Z,76.22
2019-04-26T21:39:15.999Z,76.23
2019-04-26T21:41:48.299Z,76.45
2019-04-26T21:44:17.242Z,76.76
2019-04-26T21:46:49.529Z,77.15
2019-04-26T21:49:20.641Z,76.85
2019-04-26T21:52:10.479Z,77.23
2019-04-26T21:54:39.952Z,77.13
2019-04-26T21:57:11.741Z,77.71
2019-04-26T21:59:46.194Z,77.15
2019-04-26T22:02:15.982Z,77.22
2019-04-26T22:04:45.346Z,77.34
2019-04-26T22:07:16.217Z,77.37
2019-04-26T22:10:09.213Z,77.55
2019-04-26T22:12:36.544Z,77.56
2019-04-26T22:15:35.815Z,77.64
2019-04-26T22:18:10.233Z,77.29
2019-04-26T22:20:50.769Z,77.81
2019-04-26T22:23:43.666Z,77.85
2019-04-26T22:26:14.264Z,77.81
2019-04-26T22:28:44.346Z,78.23
2019-04-26T22:31:13.678Z,78.17
2019-04-26T22:33:44.570Z,78.03
2019-04-26T22:36:14.011Z,78.19
2019-04-26T22:38:43.114Z,78.65
2019-04-26T22:41:13.425Z,78.47
2019-04-26T22:43:49.711Z,78.44
2019-04-26T22:46:46.591Z,78.45
2019-04-26T22:49:08.687Z,78.55
2019-04-26T22:51:37.833Z,78.62
2019-04-26T22:54:07.437Z,78.55
2019-04-26T22:56:37.195Z,78.46
2019-04-26T22:59:08.164Z,78.78
2019-04-26T23:01:39.223Z,78.89
2019-04-26T23:04:09.746Z,78.95
2019-04-26T23:06:42.459Z,78.87
2019-04-26T23:09:11.618Z,78.26
2019-04-26T23:11:46.579Z,78.52
2019-04-26T23:14:34.294Z,79.16
2019-04-26T23:17:27.193Z,78.84
2019-04-26T23:19:59.280Z,79.23
2019-04-26T23:22:31.086Z,79.33
2019-04-26T23:24:59.289Z,79.08
2019-04-26T23:27:28.729Z,79.47
2019-04-26T23:29:58.514Z,79.43
2019-04-26T23:32:28.294Z,79.43
2019-04-26T23:34:58.254Z,79.57
2019-04-26T23:37:28.524Z,79.40
2019-04-26T23:39:58.458Z,79.43
2019-04-26T23:42:27.951Z,79.24
2019-04-26T23:44:57.524Z,79.31
2019-04-26T23:47:27.129Z,79.27
2019-04-26T23:49:57.051Z,79.37
2019-04-26T23:52:27.207Z,79.54
2019-04-26T23:54:56.655Z,79.69
2019-04-26T23:57:27.345Z,79.95
